Time;durP1;ratioP1;P1;durP2;ratioP2;P2;SDS_P1;SDS_P2;PMS_P1;PMS_P2;Temp;Humidity;BMP_temperature;BMP_pressure;BME280_temperature;BME280_humidity;BME280_pressure;Samples;Min_cycle;Max_cycle;Signal;HPM_P1;HPM_P2
2021/06/30 00:00:26;;;;;;;2.08;0.45;;;14.60;99.90;;;;;;5035299;28;20431;-76
2021/06/30 00:02:52;;;;;;;1.90;0.47;;;14.70;99.90;;;;;;5017644;28;20442;-76
2021/06/30 00:05:17;;;;;;;4.32;0.40;;;14.60;99.90;;;;;;5034858;28;20060;-76
2021/06/30 00:07:43;;;;;;;1.83;0.40;;;14.60;99.90;;;;;;5052024;28;20021;-76
2021/06/30 00:10:09;;;;;;;1.83;0.30;;;14.60;99.90;;;;;;5054699;28;20065;-76
2021/06/30 00:12:36;;;;;;;2.33;0.35;;;14.60;99.90;;;;;;5033431;28;20013;-76
2021/06/30 00:15:07;;;;;;;0.95;0.30;;;14.60;99.90;;;;;;5035134;28;20017;-76
2021/06/30 00:17:33;;;;;;;1.13;0.55;;;14.60;99.90;;;;;;5040545;28;20109;-76
2021/06/30 00:19:59;;;;;;;3.78;0.60;;;14.60;99.90;;;;;;5016816;28;20116;-76
2021/06/30 00:22:24;;;;;;;2.05;0.32;;;14.60;99.90;;;;;;5034587;28;20029;-76
2021/06/30 00:24:50;;;;;;;2.10;0.90;;;14.60;99.90;;;;;;5016684;28;20033;-76
2021/06/30 00:27:15;;;;;;;3.75;0.70;;;14.60;99.90;;;;;;5027559;28;20047;-76
2021/06/30 00:29:41;;;;;;;1.30;0.65;;;14.60;99.90;;;;;;5056370;28;20020;-76
2021/06/30 00:32:07;;;;;;;1.95;0.57;;;14.60;99.90;;;;;;5074300;28;20028;-76
2021/06/30 00:34:32;;;;;;;1.70;0.40;;;14.60;99.90;;;;;;5074177;28;20028;-76
2021/06/30 00:36:58;;;;;;;5.30;1.00;;;14.60;99.90;;;;;;5056311;28;20043;-76
2021/06/30 00:39:23;;;;;;;0.93;0.57;;;14.50;99.90;;;;;;5056058;28;20041;-76
2021/06/30 00:41:49;;;;;;;3.10;0.63;;;14.50;99.90;;;;;;5036193;28;20025;-76
2021/06/30 00:44:15;;;;;;;1.45;0.77;;;14.50;99.90;;;;;;5053557;28;20025;-75
2021/06/30 00:46:41;;;;;;;1.90;0.30;;;14.50;99.90;;;;;;5053490;28;20104;-76
2021/06/30 00:49:08;;;;;;;2.05;0.70;;;14.50;99.90;;;;;;5035968;28;20021;-76
2021/06/30 00:51:34;;;;;;;2.78;0.35;;;14.50;99.90;;;;;;5055500;28;20032;-76
2021/06/30 00:54:00;;;;;;;2.90;0.60;;;14.50;99.90;;;;;;5053852;28;20017;-76
2021/06/30 00:56:27;;;;;;;1.23;0.60;;;14.50;99.90;;;;;;5035919;28;20497;-76
2021/06/30 00:58:54;;;;;;;1.27;0.45;;;14.50;99.90;;;;;;5031546;28;20119;-76
2021/06/30 01:01:21;;;;;;;1.58;0.70;;;14.50;99.90;;;;;;5033837;28;20097;-76
2021/06/30 01:03:48;;;;;;;3.42;0.45;;;14.50;99.90;;;;;;5033945;28;20022;-76
2021/06/30 01:06:14;;;;;;;1.23;0.70;;;14.50;99.90;;;;;;5034060;28;20060;-76
2021/06/30 01:08:41;;;;;;;3.60;0.90;;;14.50;99.90;;;;;;5033703;28;20025;-76
2021/06/30 01:11:07;;;;;;;5.13;0.60;;;14.50;99.90;;;;;;5033110;28;20391;-76
2021/06/30 01:13:32;;;;;;;2.95;0.52;;;14.50;99.90;;;;;;5033720;28;20355;-76
2021/06/30 01:15:58;;;;;;;3.63;0.43;;;14.50;99.90;;;;;;5015967;28;20029;-76
2021/06/30 01:18:25;;;;;;;3.03;0.52;;;14.40;99.90;;;;;;5033509;28;20037;-76
2021/06/30 01:20:52;;;;;;;3.08;0.80;;;14.40;99.90;;;;;;5027518;28;20025;-76
2021/06/30 01:23:19;;;;;;;3.42;0.55;;;14.40;99.90;;;;;;5053405;28;20023;-76
2021/06/30 01:25:45;;;;;;;1.98;0.98;;;14.40;99.90;;;;;;5053195;28;20029;-76
2021/06/30 01:28:11;;;;;;;1.50;0.95;;;14.40;99.90;;;;;;5022137;28;20037;-75
2021/06/30 01:30:37;;;;;;;1.95;0.60;;;14.40;99.90;;;;;;5033606;28;20151;-76
2021/06/30 01:33:03;;;;;;;4.22;1.83;;;14.40;99.90;;;;;;5045363;28;20455;-76
2021/06/30 01:35:28;;;;;;;1.27;0.73;;;14.40;99.90;;;;;;5053099;28;20059;-76
2021/06/30 01:37:55;;;;;;;2.47;0.57;;;14.40;99.90;;;;;;5052877;28;20021;-75
2021/06/30 01:40:22;;;;;;;3.80;0.70;;;14.40;99.90;;;;;;5035153;28;20431;-75
2021/06/30 01:42:49;;;;;;;2.00;0.47;;;14.40;99.90;;;;;;5035264;28;20021;-76
2021/06/30 01:45:16;;;;;;;2.15;0.60;;;14.40;99.90;;;;;;5015486;28;20014;-76
2021/06/30 01:47:42;;;;;;;1.63;0.57;;;14.40;99.90;;;;;;5015385;28;20356;-76
2021/06/30 01:50:09;;;;;;;2.45;0.65;;;14.40;99.90;;;;;;5033075;28;20486;-76
2021/06/30 01:52:34;;;;;;;1.00;0.65;;;14.40;99.90;;;;;;5033076;28;20072;-76
2021/06/30 01:55:01;;;;;;;2.70;0.40;;;14.50;99.90;;;;;;5033145;28;20079;-76
2021/06/30 01:57:27;;;;;;;4.85;0.98;;;14.50;99.90;;;;;;5015378;28;20470;-76
2021/06/30 01:59:52;;;;;;;1.88;0.30;;;14.50;99.90;;;;;;5033727;28;20028;-76
2021/06/30 02:02:18;;;;;;;4.80;0.65;;;14.50;99.90;;;;;;5052908;28;20430;-76
2021/06/30 02:04:53;;;;;;;1.63;0.70;;;14.60;99.90;;;;;;5052983;28;20028;-76
2021/06/30 02:07:18;;;;;;;6.30;0.88;;;14.50;99.90;;;;;;5034802;28;20044;-76
2021/06/30 02:09:44;;;;;;;1.27;0.40;;;14.50;99.90;;;;;;5052797;28;20037;-76
2021/06/30 02:12:09;;;;;;;2.63;0.47;;;14.50;99.90;;;;;;5052903;28;20025;-76
2021/06/30 02:14:35;;;;;;;1.25;0.60;;;14.50;99.90;;;;;;5052894;28;20112;-75
2021/06/30 02:17:01;;;;;;;2.38;0.55;;;14.50;99.90;;;;;;5053079;28;20112;-76
2021/06/30 02:19:26;;;;;;;0.88;0.32;;;14.50;99.90;;;;;;5034843;28;20078;-76
2021/06/30 02:21:52;;;;;;;2.30;0.95;;;14.50;99.90;;;;;;5055260;28;20430;-76
2021/06/30 02:24:17;;;;;;;3.85;1.30;;;14.50;99.90;;;;;;5044843;28;20080;-75
2021/06/30 02:26:43;;;;;;;0.93;0.43;;;14.50;99.90;;;;;;5038678;28;20028;-76
2021/06/30 02:29:08;;;;;;;2.08;1.00;;;14.50;99.90;;;;;;5040517;28;20098;-75
2021/06/30 02:31:34;;;;;;;1.23;0.90;;;14.50;99.90;;;;;;5056577;28;20025;-75
2021/06/30 02:33:59;;;;;;;1.67;0.77;;;14.50;99.90;;;;;;5056468;28;20060;-76
2021/06/30 02:36:25;;;;;;;1.98;0.68;;;14.50;99.90;;;;;;5056401;28;20017;-76
2021/06/30 02:38:57;;;;;;;4.13;1.27;;;14.50;99.90;;;;;;5037767;28;20032;-75
2021/06/30 02:41:23;;;;;;;1.35;0.60;;;14.50;99.90;;;;;;5038196;28;20386;-76
2021/06/30 02:43:49;;;;;;;2.58;1.05;;;14.50;99.90;;;;;;5023554;28;20013;-76
2021/06/30 02:46:15;;;;;;;1.67;0.55;;;14.50;99.90;;;;;;5018697;28;20037;-75
2021/06/30 02:48:41;;;;;;;0.93;0.65;;;14.40;99.90;;;;;;5018581;28;20025;-75
2021/06/30 02:51:06;;;;;;;5.35;0.60;;;14.40;99.90;;;;;;5036440;28;20026;-76
2021/06/30 02:53:32;;;;;;;1.65;0.95;;;14.40;99.90;;;;;;5054742;28;20028;-75
2021/06/30 02:56:01;;;;;;;2.70;0.60;;;14.40;99.90;;;;;;5055946;28;20035;-77
2021/06/30 02:58:27;;;;;;;2.15;0.70;;;14.40;99.90;;;;;;5055575;28;20086;-76
2021/06/30 03:00:52;;;;;;;1.58;0.60;;;14.40;99.90;;;;;;5056277;28;20009;-76
2021/06/30 03:03:18;;;;;;;2.65;0.43;;;14.40;99.90;;;;;;5038228;28;20021;-76
2021/06/30 03:05:43;;;;;;;0.90;0.40;;;14.40;99.90;;;;;;5056092;28;20024;-76
2021/06/30 03:08:09;;;;;;;1.20;0.38;;;14.40;99.90;;;;;;5044018;28;20029;-76
2021/06/30 03:10:34;;;;;;;0.82;0.47;;;14.30;99.90;;;;;;5018209;28;20438;-75
2021/06/30 03:13:00;;;;;;;2.13;0.57;;;14.30;99.90;;;;;;5035877;28;20479;-76
2021/06/30 03:15:25;;;;;;;4.18;0.80;;;14.30;99.90;;;;;;5036111;28;20029;-76
2021/06/30 03:17:51;;;;;;;3.47;0.70;;;14.20;99.90;;;;;;5035707;28;20120;-76
2021/06/30 03:20:16;;;;;;;1.27;0.60;;;14.20;99.90;;;;;;5035604;28;20057;-76
2021/06/30 03:22:43;;;;;;;1.15;0.32;;;14.20;99.90;;;;;;5037279;28;20083;-76
2021/06/30 03:25:10;;;;;;;2.83;0.80;;;14.20;99.90;;;;;;5046151;28;20083;-76
2021/06/30 03:27:37;;;;;;;3.78;0.70;;;14.20;99.90;;;;;;5042017;28;20026;-76
2021/06/30 03:30:08;;;;;;;3.17;1.05;;;14.20;99.90;;;;;;5035362;28;20033;-76
2021/06/30 03:32:34;;;;;;;1.55;0.65;;;14.20;99.90;;;;;;5035236;28;20051;-76
2021/06/30 03:35:00;;;;;;;1.15;0.52;;;14.20;99.90;;;;;;5035543;28;20033;-76
2021/06/30 03:37:25;;;;;;;0.77;0.50;;;14.20;99.90;;;;;;5035660;28;20036;-76
2021/06/30 03:39:51;;;;;;;6.03;0.93;;;14.20;99.90;;;;;;5035203;28;20025;-76
2021/06/30 03:42:16;;;;;;;1.05;0.32;;;14.20;99.90;;;;;;5017639;28;20021;-76
2021/06/30 03:44:42;;;;;;;4.60;0.85;;;14.20;99.90;;;;;;5050109;28;20028;-76
2021/06/30 03:47:08;;;;;;;2.47;0.90;;;14.20;99.90;;;;;;5055100;28;20474;-76
2021/06/30 03:49:33;;;;;;;4.15;0.30;;;14.20;99.90;;;;;;5051133;28;20037;-75
2021/06/30 03:51:59;;;;;;;6.47;1.00;;;14.30;99.90;;;;;;5040066;28;20033;-76
2021/06/30 03:54:25;;;;;;;2.58;1.15;;;14.20;99.90;;;;;;5034740;28;20032;-76
2021/06/30 03:56:52;;;;;;;6.50;1.23;;;14.20;99.90;;;;;;5035402;28;20021;-76
2021/06/30 03:59:18;;;;;;;3.75;0.80;;;14.20;99.90;;;;;;5017302;28;20446;-76
2021/06/30 04:01:43;;;;;;;1.08;0.40;;;14.20;99.90;;;;;;5034973;28;20056;-76
2021/06/30 04:04:12;;;;;;;1.85;0.70;;;14.20;99.90;;;;;;5017088;28;20112;-76
2021/06/30 04:06:38;;;;;;;3.72;0.60;;;14.20;99.90;;;;;;5034943;28;20100;-75
2021/06/30 04:09:04;;;;;;;1.75;0.80;;;14.20;99.90;;;;;;5017065;28;20053;-76
2021/06/30 04:11:30;;;;;;;1.70;0.40;;;14.20;99.90;;;;;;5025935;28;20021;-76
2021/06/30 04:13:56;;;;;;;0.70;0.25;;;14.20;99.90;;;;;;5054960;28;20035;-76
2021/06/30 04:16:21;;;;;;;4.40;0.30;;;14.20;99.90;;;;;;5036787;28;20025;-76
2021/06/30 04:18:47;;;;;;;2.30;0.35;;;14.20;99.90;;;;;;5054429;28;20052;-76
2021/06/30 04:21:12;;;;;;;1.63;0.32;;;14.20;99.90;;;;;;5054566;28;20021;-76
2021/06/30 04:23:38;;;;;;;1.30;0.45;;;14.30;99.90;;;;;;5036602;28;20378;-76
2021/06/30 04:26:07;;;;;;;2.25;0.52;;;14.30;99.90;;;;;;5054196;28;20405;-77
2021/06/30 04:28:32;;;;;;;;;;;14.20;99.90;;;;;;5054637;28;20032;-76
2021/06/30 04:30:58;;;;;;;4.50;0.90;;;14.20;99.90;;;;;;5054423;28;19905;-75
2021/06/30 04:33:24;;;;;;;5.03;0.50;;;14.20;99.90;;;;;;5054256;28;20119;-76
2021/06/30 04:35:50;;;;;;;1.83;0.52;;;14.20;99.90;;;;;;5036308;28;20381;-76
2021/06/30 04:38:16;;;;;;;2.58;0.93;;;14.20;99.90;;;;;;5053944;28;20032;-77
2021/06/30 04:40:42;;;;;;;3.13;1.77;;;14.10;99.90;;;;;;5054200;28;20380;-76
2021/06/30 04:43:08;;;;;;;4.45;1.25;;;14.20;99.90;;;;;;5054053;28;20028;-76
2021/06/30 04:45:34;;;;;;;3.28;1.20;;;14.10;99.90;;;;;;5035318;28;20029;-76
2021/06/30 04:47:59;;;;;;;4.97;1.45;;;14.20;99.90;;;;;;5036116;28;20017;-76
2021/06/30 04:50:25;;;;;;;4.07;1.52;;;14.20;99.90;;;;;;5053869;28;20155;-76
2021/06/30 04:52:50;;;;;;;3.85;1.63;;;14.20;99.90;;;;;;5053905;28;20025;-76
2021/06/30 04:55:16;;;;;;;6.32;1.98;;;14.20;99.90;;;;;;5054229;28;20021;-76
2021/06/30 04:57:41;;;;;;;4.95;1.75;;;14.30;99.90;;;;;;5054089;28;20063;-75
2021/06/30 05:00:09;;;;;;;2.65;1.10;;;14.30;99.90;;;;;;5043675;28;20395;-76
2021/06/30 05:02:35;;;;;;;3.97;1.77;;;14.30;99.90;;;;;;5044043;28;20026;-76
2021/06/30 05:05:01;;;;;;;4.18;1.92;;;14.40;99.90;;;;;;5053906;28;20021;-76
2021/06/30 05:07:26;;;;;;;4.15;1.75;;;14.40;99.90;;;;;;5053879;28;20021;-76
2021/06/30 05:09:52;;;;;;;2.33;0.90;;;14.40;99.90;;;;;;5035769;28;20025;-76
2021/06/30 05:12:18;;;;;;;1.77;1.00;;;14.40;99.90;;;;;;5053515;28;20104;-76
2021/06/30 05:14:44;;;;;;;2.20;1.33;;;14.40;99.90;;;;;;5053632;28;20025;-76
2021/06/30 05:17:10;;;;;;;4.32;1.33;;;14.40;99.90;;;;;;5040983;28;20109;-76
2021/06/30 05:19:35;;;;;;;3.25;1.02;;;14.40;99.90;;;;;;5033624;28;20120;-76
2021/06/30 05:22:02;;;;;;;2.78;1.27;;;14.40;99.90;;;;;;5033382;28;20097;-76
2021/06/30 05:24:28;;;;;;;2.33;0.90;;;14.40;99.90;;;;;;5033505;28;20490;-76
2021/06/30 05:26:53;;;;;;;3.17;1.00;;;14.40;99.90;;;;;;5015831;28;20206;-76
2021/06/30 05:29:19;;;;;;;6.47;1.98;;;14.40;99.90;;;;;;5017249;28;20429;-74
2021/06/30 05:31:45;;;;;;;1.70;0.98;;;14.40;99.90;;;;;;5050017;28;20029;-74
2021/06/30 05:34:10;;;;;;;3.88;1.60;;;14.40;99.90;;;;;;5035248;28;20029;-74
2021/06/30 05:36:36;;;;;;;4.70;1.00;;;14.40;99.90;;;;;;5035331;28;20033;-74
2021/06/30 05:39:02;;;;;;;5.55;1.75;;;14.40;99.90;;;;;;5053044;28;20486;-75
2021/06/30 05:41:28;;;;;;;8.85;2.05;;;14.40;99.90;;;;;;5035217;28;20013;-74
2021/06/30 05:43:53;;;;;;;5.13;1.67;;;14.40;99.90;;;;;;5053267;28;20104;-74
2021/06/30 05:46:19;;;;;;;3.80;1.65;;;14.40;99.90;;;;;;5052919;28;20031;-75
2021/06/30 05:48:45;;;;;;;5.28;2.22;;;14.40;99.90;;;;;;5051929;28;20083;-78
2021/06/30 05:51:11;;;;;;;2.97;1.55;;;14.40;99.90;;;;;;5035090;28;20025;-77
2021/06/30 05:53:38;;;;;;;14.63;2.00;;;14.30;99.90;;;;;;5053501;28;20099;-76
2021/06/30 05:56:04;;;;;;;7.60;2.15;;;14.40;99.90;;;;;;5054867;28;20075;-76
2021/06/30 05:58:29;;;;;;;2.78;1.52;;;14.30;99.90;;;;;;5039258;28;20029;-76
2021/06/30 06:00:56;;;;;;;2.10;1.25;;;14.30;99.90;;;;;;5057240;28;20025;-78
2021/06/30 06:03:22;;;;;;;7.45;2.35;;;14.30;99.90;;;;;;5044251;28;20025;-78
2021/06/30 06:05:47;;;;;;;4.25;1.85;;;14.30;99.90;;;;;;5022020;28;20029;-78
2021/06/30 06:08:13;;;;;;;3.50;1.25;;;14.30;99.90;;;;;;5039641;28;20037;-79
2021/06/30 06:10:38;;;;;;;4.00;1.70;;;14.90;99.90;;;;;;5037739;28;20029;-76
2021/06/30 06:13:04;;;;;;;4.97;1.92;;;14.30;99.90;;;;;;5037103;28;20061;-76
2021/06/30 06:15:30;;;;;;;5.28;1.83;;;14.30;99.90;;;;;;5036985;28;20018;-76
2021/06/30 06:17:55;;;;;;;5.88;1.80;;;14.30;99.90;;;;;;5036936;28;20030;-76
2021/06/30 06:20:21;;;;;;;4.03;1.55;;;14.20;99.90;;;;;;5038213;28;20033;-76
2021/06/30 06:22:46;;;;;;;6.90;1.75;;;14.30;99.90;;;;;;5037173;28;20037;-76
2021/06/30 06:25:12;;;;;;;4.63;2.10;;;14.30;99.90;;;;;;5036738;28;20033;-76
2021/06/30 06:27:38;;;;;;;4.90;1.80;;;14.30;99.90;;;;;;5018973;28;20025;-76
2021/06/30 06:30:07;;;;;;;2.35;1.23;;;14.40;99.90;;;;;;5018930;28;20622;-76
2021/06/30 06:32:32;;;;;;;2.85;1.33;;;14.40;99.90;;;;;;5018975;28;20026;-76
2021/06/30 06:34:58;;;;;;;3.55;2.30;;;14.40;99.90;;;;;;5019281;28;20437;-77
2021/06/30 06:37:24;;;;;;;2.30;1.33;;;14.40;99.90;;;;;;5019368;28;20029;-77
2021/06/30 06:39:52;;;;;;;3.45;1.00;;;14.50;99.90;;;;;;5036697;28;20394;-76
2021/06/30 06:42:18;;;;;;;4.13;1.35;;;14.50;99.90;;;;;;5036842;28;20021;-76
2021/06/30 06:44:45;;;;;;;4.85;1.48;;;14.50;99.90;;;;;;5037057;28;20028;-75
2021/06/30 06:47:11;;;;;;;2.38;1.27;;;14.50;99.90;;;;;;5036438;28;20022;-75
2021/06/30 06:49:36;;;;;;;2.47;0.98;;;14.50;99.90;;;;;;5036339;28;20067;-75
2021/06/30 06:52:03;;;;;;;2.35;1.58;;;14.50;99.90;;;;;;5018682;28;20371;-76
2021/06/30 06:54:28;;;;;;;3.47;1.95;;;14.50;99.90;;;;;;5036242;28;20104;-75
2021/06/30 06:56:54;;;;;;;5.45;1.80;;;14.50;99.90;;;;;;5036229;28;20064;-75
2021/06/30 06:59:20;;;;;;;3.13;1.42;;;14.50;99.90;;;;;;5036090;28;20061;-75
2021/06/30 07:01:45;;;;;;;8.60;1.77;;;14.50;99.90;;;;;;5018423;28;20481;-75
2021/06/30 07:04:11;;;;;;;5.28;1.60;;;14.60;99.90;;;;;;5036310;28;20025;-75
2021/06/30 07:06:36;;;;;;;6.15;2.17;;;14.50;99.90;;;;;;5036082;28;20025;-75
2021/06/30 07:09:03;;;;;;;3.72;2.13;;;14.60;99.90;;;;;;5034990;28;20147;-74
2021/06/30 07:11:28;;;;;;;5.70;1.85;;;14.60;99.90;;;;;;5018253;28;20053;-75
2021/06/30 07:13:54;;;;;;;2.38;1.45;;;14.60;99.90;;;;;;5036003;28;20029;-75
2021/06/30 07:16:20;;;;;;;3.42;1.38;;;14.60;99.90;;;;;;5036037;28;20029;-74
2021/06/30 07:18:46;;;;;;;5.07;2.15;;;14.60;99.90;;;;;;5035782;28;20022;-75
2021/06/30 07:21:15;;;;;;;2.92;1.50;;;14.60;99.90;;;;;;5035936;28;20083;-75
2021/06/30 07:23:40;;;;;;;;;;;14.60;99.90;;;;;;5036214;28;20364;-75
2021/06/30 07:26:06;;;;;;;3.13;1.45;;;14.60;99.90;;;;;;5035627;28;19920;-74
2021/06/30 07:28:32;;;;;;;4.05;1.60;;;14.60;99.90;;;;;;5036164;28;20370;-75
2021/06/30 07:30:58;;;;;;;5.10;2.35;;;14.60;99.90;;;;;;5017889;28;20029;-75
2021/06/30 07:33:24;;;;;;;4.82;2.28;;;14.80;99.90;;;;;;5035662;28;20478;-75
2021/06/30 07:35:52;;;;;;;6.05;2.00;;;14.80;99.90;;;;;;5035605;28;20021;-75
2021/06/30 07:38:18;;;;;;;5.30;1.98;;;14.80;99.90;;;;;;5035707;28;20025;-75
2021/06/30 07:40:43;;;;;;;4.45;2.20;;;14.90;99.90;;;;;;5017624;28;20091;-76
2021/06/30 07:43:09;;;;;;;6.15;2.03;;;14.90;99.90;;;;;;5035591;28;20025;-75
2021/06/30 07:45:35;;;;;;;5.38;2.15;;;14.90;99.90;;;;;;5035575;28;20024;-75
2021/06/30 07:48:01;;;;;;;6.65;2.72;;;14.90;99.90;;;;;;5035501;28;20049;-75
2021/06/30 07:50:27;;;;;;;10.07;2.30;;;14.90;99.90;;;;;;5035275;28;20064;-75
2021/06/30 07:52:52;;;;;;;6.55;2.15;;;14.90;99.90;;;;;;5017650;28;20017;-75
2021/06/30 07:55:21;;;;;;;6.32;2.45;;;14.90;99.90;;;;;;5035385;28;20017;-75
2021/06/30 07:57:47;;;;;;;5.22;2.30;;;14.90;99.90;;;;;;5035709;28;20409;-75
2021/06/30 08:00:12;;;;;;;8.63;3.10;;;14.90;99.90;;;;;;5017402;28;20070;-75
2021/06/30 08:02:39;;;;;;;6.70;2.20;;;14.90;99.90;;;;;;5035124;28;20470;-75
2021/06/30 08:05:07;;;;;;;6.10;2.53;;;14.90;99.90;;;;;;5035200;28;20021;-75
2021/06/30 08:07:32;;;;;;;7.88;2.80;;;14.90;99.90;;;;;;5035071;28;20029;-75
2021/06/30 08:09:58;;;;;;;7.53;2.65;;;14.90;99.90;;;;;;5017155;28;20025;-75
2021/06/30 08:12:24;;;;;;;9.05;2.65;;;14.90;99.90;;;;;;5035770;28;20041;-75
2021/06/30 08:14:50;;;;;;;6.70;2.38;;;14.90;99.90;;;;;;5034894;28;20032;-76
2021/06/30 08:17:16;;;;;;;6.13;3.67;;;14.90;99.90;;;;;;5034939;28;20049;-75
2021/06/30 08:19:41;;;;;;;3.95;2.30;;;15.10;99.90;;;;;;5017149;28;20165;-75
2021/06/30 08:22:10;;;;;;;10.63;1.85;;;14.90;99.90;;;;;;5017241;28;20026;-75
2021/06/30 08:24:40;;;;;;;5.68;2.25;;;15.00;99.90;;;;;;5066411;22;20120;-75
2021/06/30 08:27:08;;;;;;;7.32;2.83;;;15.00;99.90;;;;;;5074587;28;20492;-75
2021/06/30 08:29:34;;;;;;;5.07;2.45;;;15.00;99.90;;;;;;5065742;28;20025;-76
2021/06/30 08:31:59;;;;;;;9.63;2.60;;;15.00;99.90;;;;;;5054851;28;20404;-75
2021/06/30 08:34:26;;;;;;;8.60;1.67;;;15.10;99.90;;;;;;5054374;28;20021;-75
2021/06/30 08:36:55;;;;;;;2.85;1.17;;;15.10;99.90;;;;;;5036481;28;20024;-75
2021/06/30 08:39:21;;;;;;;4.88;2.13;;;15.10;99.90;;;;;;5036384;28;20029;-75
2021/06/30 08:41:48;;;;;;;2.53;1.50;;;15.10;99.90;;;;;;5053933;28;20017;-75
2021/06/30 08:44:14;;;;;;;5.47;1.45;;;15.10;99.90;;;;;;5036234;28;20060;-76
2021/06/30 08:46:40;;;;;;;5.63;1.70;;;15.10;99.90;;;;;;5036175;28;20059;-75
2021/06/30 08:49:07;;;;;;;6.10;2.28;;;15.10;99.90;;;;;;5053991;28;20032;-76
2021/06/30 08:51:34;;;;;;;8.02;2.00;;;15.10;99.90;;;;;;5054337;28;20063;-75
2021/06/30 08:54:02;;;;;;;5.70;1.60;;;15.10;99.90;;;;;;5036172;28;20048;-75
2021/06/30 08:56:32;;;;;;;9.02;3.72;;;15.10;99.90;;;;;;5054090;28;20021;-76
2021/06/30 08:59:01;;;;;;;6.38;2.40;;;15.10;99.90;;;;;;5035865;28;20035;-76
2021/06/30 09:01:28;;;;;;;5.55;1.30;;;15.20;99.90;;;;;;5054181;28;20028;-75
2021/06/30 09:03:56;;;;;;;6.75;2.13;;;15.20;99.90;;;;;;5035898;28;20017;-75
2021/06/30 09:06:22;;;;;;;5.88;1.52;;;15.20;99.90;;;;;;5036546;28;20021;-75
2021/06/30 09:08:48;;;;;;;6.03;1.63;;;15.20;99.90;;;;;;5053828;28;20497;-75
2021/06/30 09:11:15;;;;;;;5.25;2.05;;;15.20;99.90;;;;;;5053696;28;20067;-75
2021/06/30 09:13:41;;;;;;;5.35;1.63;;;15.30;99.90;;;;;;5035727;28;20033;-75
2021/06/30 09:16:07;;;;;;;3.30;1.13;;;15.40;99.90;;;;;;5053696;28;20032;-75
2021/06/30 09:18:35;;;;;;;4.82;1.40;;;15.40;99.90;;;;;;5035614;28;20041;-75
2021/06/30 09:21:20;;;;;;;6.90;2.20;;;15.40;99.90;;;;;;5035625;28;20022;-75
2021/06/30 09:24:12;;;;;;;9.07;2.00;;;15.40;99.90;;;;;;5053525;28;20017;-75
2021/06/30 09:26:48;;;;;;;9.13;2.78;;;15.50;99.90;;;;;;5035577;28;20398;-75
2021/06/30 09:29:14;;;;;;;7.70;2.35;;;15.60;99.90;;;;;;5035582;28;20082;-75
2021/06/30 09:31:45;;;;;;;3.33;1.30;;;15.70;99.90;;;;;;5052885;28;20108;-76
2021/06/30 09:34:11;;;;;;;5.90;1.45;;;15.70;99.90;;;;;;5035543;28;20028;-75
2021/06/30 09:36:57;;;;;;;2.67;1.23;;;15.80;99.90;;;;;;5053277;28;20139;-75
2021/06/30 09:39:24;;;;;;;2.63;1.50;;;15.80;99.90;;;;;;5035349;28;20033;-76
2021/06/30 09:42:00;;;;;;;3.25;1.17;;;15.90;99.90;;;;;;5053794;28;20021;-75
2021/06/30 09:44:27;;;;;;;3.17;1.35;;;15.70;99.90;;;;;;5053200;28;20040;-75
2021/06/30 09:46:54;;;;;;;2.65;1.02;;;15.60;99.90;;;;;;5035345;28;20017;-75
2021/06/30 09:49:24;;;;;;;4.40;1.50;;;15.70;99.90;;;;;;5053120;28;20025;-75
2021/06/30 09:52:09;;;;;;;3.83;0.98;;;15.70;99.90;;;;;;5053147;28;20021;-75
2021/06/30 09:54:36;;;;;;;4.68;1.70;;;15.70;99.90;;;;;;5035343;28;20036;-75
2021/06/30 09:57:11;;;;;;;1.92;1.15;;;15.70;99.90;;;;;;5053121;28;20021;-75
2021/06/30 09:59:41;;;;;;;3.92;1.52;;;15.70;99.90;;;;;;5035195;28;20112;-75
2021/06/30 10:02:17;;;;;;;3.60;1.65;;;15.70;99.90;;;;;;5053047;28;20040;-75
2021/06/30 10:04:57;;;;;;;4.32;1.33;;;15.70;99.90;;;;;;5053100;28;20021;-75
2021/06/30 10:07:24;;;;;;;2.42;1.30;;;15.70;99.90;;;;;;5053083;28;20025;-75
2021/06/30 10:09:52;;;;;;;6.05;1.27;;;15.80;99.90;;;;;;5035040;28;20017;-75
2021/06/30 10:12:23;;;;;;;5.43;1.60;;;15.80;99.90;;;;;;5035197;28;20512;-75
2021/06/30 10:14:49;;;;;;;5.35;1.58;;;15.80;99.90;;;;;;5035428;28;20032;-75
2021/06/30 10:17:15;;;;;;;5.88;1.83;;;15.90;99.90;;;;;;5052942;28;20025;-75
2021/06/30 10:19:42;;;;;;;7.10;1.77;;;16.10;99.90;;;;;;5052831;28;20101;-75
2021/06/30 10:22:10;;;;;;;1.73;0.88;;;16.30;99.90;;;;;;5052914;28;20021;-76
2021/06/30 10:24:37;;;;;;;1.48;0.85;;;16.30;99.90;;;;;;5052906;28;20599;-76
2021/06/30 10:27:04;;;;;;;2.10;0.70;;;16.50;99.90;;;;;;5053459;28;20022;-76
2021/06/30 10:29:33;;;;;;;5.63;1.23;;;16.50;99.90;;;;;;5052807;28;20025;-75
2021/06/30 10:32:04;;;;;;;3.90;1.40;;;16.60;99.90;;;;;;5034898;28;20121;-75
2021/06/30 10:34:37;;;;;;;2.78;0.88;;;16.70;99.90;;;;;;5034997;28;20021;-75
2021/06/30 10:37:15;;;;;;;1.95;0.73;;;16.60;99.90;;;;;;5034910;28;20083;-75
2021/06/30 10:39:43;;;;;;;4.40;0.95;;;16.70;99.90;;;;;;5052616;28;20029;-75
2021/06/30 10:42:20;;;;;;;2.85;0.73;;;16.70;99.90;;;;;;5054491;28;20028;-75
2021/06/30 10:44:54;;;;;;;4.95;0.88;;;16.80;99.90;;;;;;5056686;28;20048;-75
2021/06/30 10:47:37;;;;;;;3.65;1.50;;;16.70;99.90;;;;;;5056677;28;20370;-75
2021/06/30 10:50:22;;;;;;;3.10;1.17;;;16.70;99.90;;;;;;5056588;28;20096;-75
2021/06/30 10:52:56;;;;;;;2.08;0.90;;;16.70;99.90;;;;;;5038630;28;20078;-75
2021/06/30 10:55:31;;;;;;;5.70;1.30;;;16.60;99.90;;;;;;5056685;28;20048;-75
2021/06/30 10:58:15;;;;;;;5.20;1.65;;;16.60;99.90;;;;;;5056982;28;20050;-75
2021/06/30 11:00:51;;;;;;;7.10;1.50;;;16.60;99.90;;;;;;5038348;28;20507;-76
2021/06/30 11:03:53;;;;;;;4.25;1.23;;;16.60;99.90;;;;;;5056443;28;20017;-75
2021/06/30 11:06:24;;;;;;;5.60;1.70;;;16.50;99.90;;;;;;5053855;28;20423;-75
2021/06/30 11:09:05;;;;;;;5.53;1.67;;;16.50;99.90;;;;;;5056430;28;20036;-75
2021/06/30 11:11:34;;;;;;;2.67;1.45;;;16.50;99.90;;;;;;5056091;28;20473;-75
2021/06/30 11:14:03;;;;;;;;;;;16.50;99.90;;;;;;5056401;28;20021;-75
2021/06/30 11:16:45;;;;;;;5.32;1.33;;;16.50;99.90;;;;;;5037968;28;19908;-76
2021/06/30 11:19:19;;;;;;;6.65;1.48;;;16.50;99.90;;;;;;5055964;28;20017;-75
2021/06/30 11:21:56;;;;;;;8.23;1.58;;;16.50;99.90;;;;;;5056351;28;20129;-75
2021/06/30 11:24:38;;;;;;;5.25;1.70;;;16.40;99.90;;;;;;5038586;28;20119;-76
2021/06/30 11:30:05;;;;;;;6.68;1.83;;;16.50;99.90;;;;;;5038377;28;20493;-76
2021/06/30 11:32:31;;;;;;;6.55;2.10;;;16.60;99.90;;;;;;5037637;28;20024;-75
2021/06/30 11:35:01;;;;;;;7.03;1.30;;;16.60;99.90;;;;;;5055501;28;20025;-75
2021/06/30 11:37:27;;;;;;;6.43;1.35;;;16.60;99.90;;;;;;5055371;28;20025;-75
2021/06/30 11:39:59;;;;;;;5.43;1.92;;;16.50;99.90;;;;;;5055122;28;20031;-75
2021/06/30 11:42:35;;;;;;;7.13;2.10;;;16.50;99.90;;;;;;5037471;28;20024;-75
2021/06/30 11:45:01;;;;;;;8.00;1.75;;;16.50;99.90;;;;;;5055249;28;20021;-75
2021/06/30 11:47:30;;;;;;;8.02;1.90;;;16.50;99.90;;;;;;5037294;28;20108;-76
2021/06/30 11:50:03;;;;;;;4.18;1.55;;;16.50;99.90;;;;;;5055406;28;20021;-75
2021/06/30 11:52:29;;;;;;;7.85;2.03;;;16.60;99.90;;;;;;5037515;28;20033;-75
2021/06/30 11:54:57;;;;;;;4.88;1.65;;;16.60;99.90;;;;;;5055154;28;20104;-75
2021/06/30 11:57:23;;;;;;;3.70;1.20;;;16.70;99.90;;;;;;5037222;28;20338;-75
2021/06/30 12:00:02;;;;;;;7.93;1.70;;;16.80;99.90;;;;;;5037190;28;20279;-75
2021/06/30 12:02:44;;;;;;;6.40;2.38;;;16.90;99.90;;;;;;5055012;28;20021;-75
2021/06/30 12:05:13;;;;;;;4.35;1.45;;;17.00;99.90;;;;;;5055001;28;20036;-75
2021/06/30 12:07:43;;;;;;;2.42;1.23;;;17.10;99.90;;;;;;5054889;28;20021;-75
2021/06/30 12:10:10;;;;;;;3.53;1.23;;;17.20;99.90;;;;;;5054893;28;20508;-75
2021/06/30 12:12:35;;;;;;;4.80;1.42;;;17.10;99.90;;;;;;5054800;28;20430;-76
2021/06/30 12:15:03;;;;;;;4.35;0.90;;;17.20;99.90;;;;;;5055008;28;20060;-75
2021/06/30 12:17:32;;;;;;;2.58;1.30;;;17.20;99.90;;;;;;5054668;28;20569;-75
2021/06/30 12:20:01;;;;;;;5.35;1.20;;;17.10;99.90;;;;;;5037401;28;20043;-76
2021/06/30 12:22:37;;;;;;;3.60;0.93;;;17.20;99.90;;;;;;5036810;28;20474;-75
2021/06/30 12:25:21;;;;;;;1.90;0.70;;;17.10;99.90;;;;;;5054410;28;20022;-75
2021/06/30 12:27:51;;;;;;;3.28;1.23;;;18.50;99.90;;;;;;5054709;28;20025;-75
2021/06/30 12:30:28;;;;;;;5.88;0.63;;;17.20;99.90;;;;;;5054690;28;20028;-75
2021/06/30 12:33:12;;;;;;;3.08;0.40;;;17.10;99.90;;;;;;5036579;28;20032;-75
2021/06/30 12:35:57;;;;;;;2.97;0.77;;;17.20;99.90;;;;;;5054422;28;20021;-75
2021/06/30 12:38:27;;;;;;;2.58;0.30;;;17.30;99.90;;;;;;5053994;28;20079;-75
2021/06/30 12:41:07;;;;;;;3.58;0.52;;;17.40;99.90;;;;;;5054186;28;20017;-75
2021/06/30 12:43:33;;;;;;;1.70;0.60;;;17.40;99.90;;;;;;5054870;28;20021;-75
2021/06/30 12:45:59;;;;;;;2.88;1.15;;;17.50;99.90;;;;;;5054599;28;20028;-78
2021/06/30 12:48:26;;;;;;;3.33;0.73;;;17.60;99.90;;;;;;5037768;28;20028;-77
2021/06/30 12:51:06;;;;;;;3.30;0.60;;;17.70;99.90;;;;;;5055048;28;20028;-78
2021/06/30 12:53:36;;;;;;;4.32;0.30;;;17.90;99.90;;;;;;5055858;28;20044;-77